sensor_id;sensor_type;location;lat;lon;timestamp;P1;durP1;ratioP1;P2;durP2;ratioP2
13457;SDS011;6801;53.018;11.560;2023-04-10T00:01:30;18.00;;;12.43;;
13457;SDS011;6801;53.018;11.560;2023-04-10T00:03:59;26.15;;;15.55;;
13457;SDS011;6801;53.018;11.560;2023-04-10T00:06:28;23.17;;;13.63;;
13457;SDS011;6801;53.018;11.560;2023-04-10T00:08:55;23.77;;;13.85;;
13457;SDS011;6801;53.018;11.560;2023-04-10T00:11:23;26.38;;;13.50;;
13457;SDS011;6801;53.018;11.560;2023-04-10T00:13:50;21.45;;;12.57;;
13457;SDS011;6801;53.018;11.560;2023-04-10T00:16:17;23.98;;;13.60;;
13457;SDS011;6801;53.018;11.560;2023-04-10T00:18:44;22.58;;;12.77;;
13457;SDS011;6801;53.018;11.560;2023-04-10T00:21:10;21.85;;;12.40;;
13457;SDS011;6801;53.018;11.560;2023-04-10T00:23:39;26.67;;;13.82;;
13457;SDS011;6801;53.018;11.560;2023-04-10T00:26:06;25.35;;;13.13;;
13457;SDS011;6801;53.018;11.560;2023-04-10T00:28:33;22.00;;;13.52;;
13457;SDS011;6801;53.018;11.560;2023-04-10T00:31:02;24.02;;;13.38;;
13457;SDS011;6801;53.018;11.560;2023-04-10T00:33:29;24.67;;;14.13;;
13457;SDS011;6801;53.018;11.560;2023-04-10T00:35:56;24.95;;;13.15;;
13457;SDS011;6801;53.018;11.560;2023-04-10T00:38:23;18.42;;;11.18;;
13457;SDS011;6801;53.018;11.560;2023-04-10T00:40:51;16.45;;;9.65;;
13457;SDS011;6801;53.018;11.560;2023-04-10T00:43:18;18.02;;;10.63;;
13457;SDS011;6801;53.018;11.560;2023-04-10T00:45:45;19.20;;;10.75;;
13457;SDS011;6801;53.018;11.560;2023-04-10T00:48:13;22.30;;;10.07;;
13457;SDS011;6801;53.018;11.560;2023-04-10T00:50:41;20.92;;;11.82;;
13457;SDS011;6801;53.018;11.560;2023-04-10T00:53:09;20.20;;;10.38;;
13457;SDS011;6801;53.018;11.560;2023-04-10T00:55:36;24.45;;;12.93;;
13457;SDS011;6801;53.018;11.560;2023-04-10T00:58:04;22.80;;;13.30;;
13457;SDS011;6801;53.018;11.560;2023-04-10T01:00:32;18.13;;;11.13;;
13457;SDS011;6801;53.018;11.560;2023-04-10T01:02:59;22.92;;;13.32;;
13457;SDS011;6801;53.018;11.560;2023-04-10T01:05:26;19.80;;;11.20;;
13457;SDS011;6801;53.018;11.560;2023-04-10T01:08:01;20.08;;;11.15;;
13457;SDS011;6801;53.018;11.560;2023-04-10T01:10:39;20.45;;;11.48;;
13457;SDS011;6801;53.018;11.560;2023-04-10T01:13:15;23.20;;;12.18;;
13457;SDS011;6801;53.018;11.560;2023-04-10T01:15:51;18.90;;;10.93;;
13457;SDS011;6801;53.018;11.560;2023-04-10T01:18:25;21.45;;;12.07;;
13457;SDS011;6801;53.018;11.560;2023-04-10T01:20:57;19.13;;;11.10;;
13457;SDS011;6801;53.018;11.560;2023-04-10T01:23:35;21.23;;;12.43;;
13457;SDS011;6801;53.018;11.560;2023-04-10T01:26:12;18.73;;;11.35;;
13457;SDS011;6801;53.018;11.560;2023-04-10T01:28:50;21.08;;;11.18;;
13457;SDS011;6801;53.018;11.560;2023-04-10T01:31:23;23.08;;;12.93;;
13457;SDS011;6801;53.018;11.560;2023-04-10T01:33:57;25.45;;;12.50;;
13457;SDS011;6801;53.018;11.560;2023-04-10T01:36:30;24.02;;;12.13;;
13457;SDS011;6801;53.018;11.560;2023-04-10T01:39:01;20.70;;;12.05;;
13457;SDS011;6801;53.018;11.560;2023-04-10T01:41:31;24.52;;;11.70;;
13457;SDS011;6801;53.018;11.560;2023-04-10T01:44:02;21.70;;;13.38;;
13457;SDS011;6801;53.018;11.560;2023-04-10T01:46:30;20.17;;;11.65;;
13457;SDS011;6801;53.018;11.560;2023-04-10T01:48:59;22.58;;;11.73;;
13457;SDS011;6801;53.018;11.560;2023-04-10T01:51:29;23.08;;;12.00;;
13457;SDS011;6801;53.018;11.560;2023-04-10T01:53:59;22.33;;;11.50;;
13457;SDS011;6801;53.018;11.560;2023-04-10T01:56:28;20.90;;;11.15;;
13457;SDS011;6801;53.018;11.560;2023-04-10T01:58:55;22.45;;;12.52;;
13457;SDS011;6801;53.018;11.560;2023-04-10T02:01:24;19.77;;;11.85;;
13457;SDS011;6801;53.018;11.560;2023-04-10T02:03:52;19.88;;;11.23;;
13457;SDS011;6801;53.018;11.560;2023-04-10T02:06:21;19.55;;;11.48;;
13457;SDS011;6801;53.018;11.560;2023-04-10T02:08:56;19.52;;;11.25;;
13457;SDS011;6801;53.018;11.560;2023-04-10T02:11:37;15.68;;;9.68;;
13457;SDS011;6801;53.018;11.560;2023-04-10T02:14:10;13.55;;;8.48;;
13457;SDS011;6801;53.018;11.560;2023-04-10T02:16:43;19.17;;;10.57;;
13457;SDS011;6801;53.018;11.560;2023-04-10T02:19:11;20.05;;;10.63;;
13457;SDS011;6801;53.018;11.560;2023-04-10T02:21:39;16.27;;;9.52;;
13457;SDS011;6801;53.018;11.560;2023-04-10T02:24:08;18.52;;;10.32;;
13457;SDS011;6801;53.018;11.560;2023-04-10T02:26:44;17.00;;;9.85;;
13457;SDS011;6801;53.018;11.560;2023-04-10T02:29:12;17.38;;;9.32;;
13457;SDS011;6801;53.018;11.560;2023-04-10T02:31:39;16.95;;;8.38;;
13457;SDS011;6801;53.018;11.560;2023-04-10T02:34:08;14.45;;;8.45;;
13457;SDS011;6801;53.018;11.560;2023-04-10T02:36:35;14.95;;;8.77;;
13457;SDS011;6801;53.018;11.560;2023-04-10T02:39:04;11.50;;;7.55;;
13457;SDS011;6801;53.018;11.560;2023-04-10T02:41:34;11.53;;;7.43;;
13457;SDS011;6801;53.018;11.560;2023-04-10T02:44:03;14.07;;;8.32;;
13457;SDS011;6801;53.018;11.560;2023-04-10T02:46:31;12.23;;;7.38;;
13457;SDS011;6801;53.018;11.560;2023-04-10T02:48:58;13.45;;;8.20;;
13457;SDS011;6801;53.018;11.560;2023-04-10T02:51:28;13.50;;;7.78;;
13457;SDS011;6801;53.018;11.560;2023-04-10T02:53:55;15.30;;;9.38;;
13457;SDS011;6801;53.018;11.560;2023-04-10T02:56:27;17.67;;;8.40;;
13457;SDS011;6801;53.018;11.560;2023-04-10T02:58:54;15.63;;;8.52;;
13457;SDS011;6801;53.018;11.560;2023-04-10T03:01:22;16.40;;;9.30;;
13457;SDS011;6801;53.018;11.560;2023-04-10T03:03:49;18.95;;;10.23;;
13457;SDS011;6801;53.018;11.560;2023-04-10T03:06:23;19.77;;;10.23;;
13457;SDS011;6801;53.018;11.560;2023-04-10T03:08:53;17.70;;;9.30;;
13457;SDS011;6801;53.018;11.560;2023-04-10T03:11:20;18.90;;;10.05;;
13457;SDS011;6801;53.018;11.560;2023-04-10T03:13:48;14.77;;;8.55;;
13457;SDS011;6801;53.018;11.560;2023-04-10T03:16:15;15.43;;;9.13;;
13457;SDS011;6801;53.018;11.560;2023-04-10T03:18:42;17.50;;;9.32;;
13457;SDS011;6801;53.018;11.560;2023-04-10T03:21:10;15.95;;;8.77;;
13457;SDS011;6801;53.018;11.560;2023-04-10T03:23:37;18.20;;;8.95;;
13457;SDS011;6801;53.018;11.560;2023-04-10T03:26:05;17.10;;;8.73;;
13457;SDS011;6801;53.018;11.560;2023-04-10T03:28:36;16.77;;;8.93;;
13457;SDS011;6801;53.018;11.560;2023-04-10T03:31:04;15.85;;;9.30;;
13457;SDS011;6801;53.018;11.560;2023-04-10T03:33:34;15.48;;;8.65;;
13457;SDS011;6801;53.018;11.560;2023-04-10T03:36:01;17.15;;;9.50;;
13457;SDS011;6801;53.018;11.560;2023-04-10T03:38:28;22.70;;;9.05;;
13457;SDS011;6801;53.018;11.560;2023-04-10T03:40:55;15.52;;;8.55;;
13457;SDS011;6801;53.018;11.560;2023-04-10T03:43:26;23.00;;;9.05;;
13457;SDS011;6801;53.018;11.560;2023-04-10T03:45:54;22.15;;;8.52;;
13457;SDS011;6801;53.018;11.560;2023-04-10T03:48:22;36.42;;;9.10;;
13457;SDS011;6801;53.018;11.560;2023-04-10T03:50:52;21.08;;;8.15;;
13457;SDS011;6801;53.018;11.560;2023-04-10T03:53:19;19.90;;;8.10;;
13457;SDS011;6801;53.018;11.560;2023-04-10T03:55:46;15.57;;;7.32;;
13457;SDS011;6801;53.018;11.560;2023-04-10T03:58:14;13.98;;;7.55;;
13457;SDS011;6801;53.018;11.560;2023-04-10T04:00:42;16.13;;;8.32;;
13457;SDS011;6801;53.018;11.560;2023-04-10T04:03:18;16.65;;;8.10;;
13457;SDS011;6801;53.018;11.560;2023-04-10T04:05:45;14.38;;;8.35;;
13457;SDS011;6801;53.018;11.560;2023-04-10T04:11:02;19.35;;;8.65;;
13457;SDS011;6801;53.018;11.560;2023-04-10T04:13:49;14.05;;;8.25;;
13457;SDS011;6801;53.018;11.560;2023-04-10T04:16:36;14.15;;;7.63;;
13457;SDS011;6801;53.018;11.560;2023-04-10T04:19:25;15.38;;;8.63;;
13457;SDS011;6801;53.018;11.560;2023-04-10T04:22:11;19.38;;;9.60;;
13457;SDS011;6801;53.018;11.560;2023-04-10T04:24:59;16.13;;;9.43;;
13457;SDS011;6801;53.018;11.560;2023-04-10T04:27:46;17.63;;;9.90;;
13457;SDS011;6801;53.018;11.560;2023-04-10T04:30:31;14.70;;;8.43;;
13457;SDS011;6801;53.018;11.560;2023-04-10T04:33:23;16.70;;;10.13;;
13457;SDS011;6801;53.018;11.560;2023-04-10T04:36:22;24.23;;;11.77;;
13457;SDS011;6801;53.018;11.560;2023-04-10T04:39:18;17.55;;;10.57;;
13457;SDS011;6801;53.018;11.560;2023-04-10T04:42:21;19.95;;;9.13;;
13457;SDS011;6801;53.018;11.560;2023-04-10T04:45:20;18.20;;;10.07;;
13457;SDS011;6801;53.018;11.560;2023-04-10T04:48:13;18.58;;;10.38;;
13457;SDS011;6801;53.018;11.560;2023-04-10T04:51:12;18.45;;;10.02;;
13457;SDS011;6801;53.018;11.560;2023-04-10T04:53:45;18.58;;;9.60;;
13457;SDS011;6801;53.018;11.560;2023-04-10T04:56:31;27.60;;;11.35;;
13457;SDS011;6801;53.018;11.560;2023-04-10T04:59:08;23.30;;;9.98;;
13457;SDS011;6801;53.018;11.560;2023-04-10T05:01:53;27.17;;;10.40;;
13457;SDS011;6801;53.018;11.560;2023-04-10T05:04:43;20.88;;;10.15;;
13457;SDS011;6801;53.018;11.560;2023-04-10T05:07:44;23.60;;;9.45;;
13457;SDS011;6801;53.018;11.560;2023-04-10T05:10:34;30.20;;;10.40;;
13457;SDS011;6801;53.018;11.560;2023-04-10T05:13:04;18.58;;;10.30;;
13457;SDS011;6801;53.018;11.560;2023-04-10T05:15:57;27.05;;;11.50;;
13457;SDS011;6801;53.018;11.560;2023-04-10T05:18:39;20.70;;;10.50;;
13457;SDS011;6801;53.018;11.560;2023-04-10T05:21:16;22.67;;;10.65;;
13457;SDS011;6801;53.018;11.560;2023-04-10T05:24:09;35.17;;;10.02;;
13457;SDS011;6801;53.018;11.560;2023-04-10T05:26:42;23.02;;;10.73;;
13457;SDS011;6801;53.018;11.560;2023-04-10T05:29:39;29.58;;;10.23;;
13457;SDS011;6801;53.018;11.560;2023-04-10T05:32:12;25.98;;;10.10;;
13457;SDS011;6801;53.018;11.560;2023-04-10T05:34:56;32.97;;;10.45;;
13457;SDS011;6801;53.018;11.560;2023-04-10T05:37:31;35.85;;;10.07;;
13457;SDS011;6801;53.018;11.560;2023-04-10T05:40:07;42.67;;;10.93;;
13457;SDS011;6801;53.018;11.560;2023-04-10T05:42:50;36.75;;;10.27;;
13457;SDS011;6801;53.018;11.560;2023-04-10T05:45:37;35.17;;;10.68;;
13457;SDS011;6801;53.018;11.560;2023-04-10T05:48:22;19.55;;;11.13;;
13457;SDS011;6801;53.018;11.560;2023-04-10T05:51:19;22.52;;;10.38;;
13457;SDS011;6801;53.018;11.560;2023-04-10T05:54:08;21.77;;;10.18;;
13457;SDS011;6801;53.018;11.560;2023-04-10T05:57:04;26.55;;;11.55;;
13457;SDS011;6801;53.018;11.560;2023-04-10T05:59:45;20.23;;;11.15;;
13457;SDS011;6801;53.018;11.560;2023-04-10T06:02:38;15.55;;;10.30;;
13457;SDS011;6801;53.018;11.560;2023-04-10T06:05:11;18.95;;;12.57;;
13457;SDS011;6801;53.018;11.560;2023-04-10T06:07:39;17.42;;;11.15;;
13457;SDS011;6801;53.018;11.560;2023-04-10T06:10:07;20.55;;;13.23;;
13457;SDS011;6801;53.018;11.560;2023-04-10T06:12:37;20.92;;;12.88;;
13457;SDS011;6801;53.018;11.560;2023-04-10T06:15:07;23.23;;;13.85;;
13457;SDS011;6801;53.018;11.560;2023-04-10T06:17:40;21.80;;;13.75;;
13457;SDS011;6801;53.018;11.560;2023-04-10T06:20:08;26.67;;;12.45;;
13457;SDS011;6801;53.018;11.560;2023-04-10T06:22:35;23.52;;;13.63;;
13457;SDS011;6801;53.018;11.560;2023-04-10T06:25:04;23.98;;;15.52;;
13457;SDS011;6801;53.018;11.560;2023-04-10T06:27:32;23.63;;;14.18;;
13457;SDS011;6801;53.018;11.560;2023-04-10T06:30:01;24.58;;;14.90;;
13457;SDS011;6801;53.018;11.560;2023-04-10T06:32:28;23.23;;;14.77;;
13457;SDS011;6801;53.018;11.560;2023-04-10T06:34:56;28.73;;;17.00;;
13457;SDS011;6801;53.018;11.560;2023-04-10T06:37:27;26.13;;;15.80;;
13457;SDS011;6801;53.018;11.560;2023-04-10T06:40:00;25.92;;;16.38;;
13457;SDS011;6801;53.018;11.560;2023-04-10T06:42:29;22.08;;;14.55;;
13457;SDS011;6801;53.018;11.560;2023-04-10T06:45:01;26.77;;;16.38;;
13457;SDS011;6801;53.018;11.560;2023-04-10T06:47:29;26.23;;;16.05;;
13457;SDS011;6801;53.018;11.560;2023-04-10T06:49:56;25.23;;;15.88;;
13457;SDS011;6801;53.018;11.560;2023-04-10T06:52:23;35.30;;;16.80;;
13457;SDS011;6801;53.018;11.560;2023-04-10T06:54:50;25.23;;;16.38;;
13457;SDS011;6801;53.018;11.560;2023-04-10T06:57:17;24.77;;;15.45;;
13457;SDS011;6801;53.018;11.560;2023-04-10T06:59:44;26.38;;;16.45;;
13457;SDS011;6801;53.018;11.560;2023-04-10T07:02:12;24.52;;;16.83;;
13457;SDS011;6801;53.018;11.560;2023-04-10T07:04:40;25.67;;;18.17;;
13457;SDS011;6801;53.018;11.560;2023-04-10T07:07:07;28.27;;;17.13;;
13457;SDS011;6801;53.018;11.560;2023-04-10T07:09:36;26.80;;;17.23;;
13457;SDS011;6801;53.018;11.560;2023-04-10T07:12:03;27.98;;;18.73;;
13457;SDS011;6801;53.018;11.560;2023-04-10T07:14:31;28.38;;;18.02;;
13457;SDS011;6801;53.018;11.560;2023-04-10T07:16:58;25.75;;;16.77;;
13457;SDS011;6801;53.018;11.560;2023-04-10T07:19:26;25.83;;;16.38;;
13457;SDS011;6801;53.018;11.560;2023-04-10T07:21:53;24.73;;;16.65;;
13457;SDS011;6801;53.018;11.560;2023-04-10T07:24:21;25.52;;;17.38;;
13457;SDS011;6801;53.018;11.560;2023-04-10T07:26:48;23.77;;;15.48;;
13457;SDS011;6801;53.018;11.560;2023-04-10T07:29:15;24.52;;;16.17;;
13457;SDS011;6801;53.018;11.560;2023-04-10T07:31:42;29.08;;;17.65;;
13457;SDS011;6801;53.018;11.560;2023-04-10T07:34:09;24.90;;;15.98;;
13457;SDS011;6801;53.018;11.560;2023-04-10T07:36:37;22.55;;;15.65;;
13457;SDS011;6801;53.018;11.560;2023-04-10T07:39:04;27.75;;;18.65;;
13457;SDS011;6801;53.018;11.560;2023-04-10T07:41:31;27.67;;;15.70;;
13457;SDS011;6801;53.018;11.560;2023-04-10T07:43:59;24.42;;;16.40;;
13457;SDS011;6801;53.018;11.560;2023-04-10T07:46:26;26.80;;;16.70;;
13457;SDS011;6801;53.018;11.560;2023-04-10T07:48:53;21.88;;;15.93;;
13457;SDS011;6801;53.018;11.560;2023-04-10T07:51:20;25.17;;;16.67;;
13457;SDS011;6801;53.018;11.560;2023-04-10T07:53:48;26.75;;;18.13;;
13457;SDS011;6801;53.018;11.560;2023-04-10T07:56:16;25.60;;;17.70;;
13457;SDS011;6801;53.018;11.560;2023-04-10T07:58:45;26.90;;;17.35;;
13457;SDS011;6801;53.018;11.560;2023-04-10T08:01:13;25.88;;;17.83;;
13457;SDS011;6801;53.018;11.560;2023-04-10T08:03:40;26.33;;;17.17;;
13457;SDS011;6801;53.018;11.560;2023-04-10T08:06:08;24.13;;;16.75;;
13457;SDS011;6801;53.018;11.560;2023-04-10T08:08:36;26.35;;;18.50;;
13457;SDS011;6801;53.018;11.560;2023-04-10T08:11:06;27.45;;;18.50;;
13457;SDS011;6801;53.018;11.560;2023-04-10T08:13:33;23.73;;;16.95;;
13457;SDS011;6801;53.018;11.560;2023-04-10T08:16:00;30.88;;;18.95;;
13457;SDS011;6801;53.018;11.560;2023-04-10T08:18:27;24.10;;;17.45;;
13457;SDS011;6801;53.018;11.560;2023-04-10T08:20:54;23.55;;;15.63;;
13457;SDS011;6801;53.018;11.560;2023-04-10T08:23:22;25.98;;;17.88;;
13457;SDS011;6801;53.018;11.560;2023-04-10T08:25:48;25.92;;;17.52;;
13457;SDS011;6801;53.018;11.560;2023-04-10T08:28:17;22.63;;;16.35;;
13457;SDS011;6801;53.018;11.560;2023-04-10T08:30:45;23.83;;;16.67;;
13457;SDS011;6801;53.018;11.560;2023-04-10T08:33:12;26.48;;;17.80;;
13457;SDS011;6801;53.018;11.560;2023-04-10T08:35:39;27.13;;;18.33;;
13457;SDS011;6801;53.018;11.560;2023-04-10T08:38:06;25.83;;;18.05;;
13457;SDS011;6801;53.018;11.560;2023-04-10T08:40:35;24.23;;;17.40;;
13457;SDS011;6801;53.018;11.560;2023-04-10T08:43:02;25.90;;;17.90;;
13457;SDS011;6801;53.018;11.560;2023-04-10T08:45:32;24.45;;;18.02;;
13457;SDS011;6801;53.018;11.560;2023-04-10T08:47:59;25.85;;;16.95;;
13457;SDS011;6801;53.018;11.560;2023-04-10T08:50:30;25.17;;;17.55;;
13457;SDS011;6801;53.018;11.560;2023-04-10T08:53:02;26.95;;;16.52;;
13457;SDS011;6801;53.018;11.560;2023-04-10T08:55:40;25.50;;;18.15;;
13457;SDS011;6801;53.018;11.560;2023-04-10T08:58:09;26.13;;;17.42;;
13457;SDS011;6801;53.018;11.560;2023-04-10T09:00:39;22.10;;;15.77;;
13457;SDS011;6801;53.018;11.560;2023-04-10T09:03:07;23.48;;;16.83;;
13457;SDS011;6801;53.018;11.560;2023-04-10T09:05:38;23.75;;;16.88;;
13457;SDS011;6801;53.018;11.560;2023-04-10T09:08:06;24.67;;;16.38;;
13457;SDS011;6801;53.018;11.560;2023-04-10T09:10:35;22.25;;;16.83;;
13457;SDS011;6801;53.018;11.560;2023-04-10T09:13:02;22.70;;;14.60;;
13457;SDS011;6801;53.018;11.560;2023-04-10T09:15:29;24.02;;;15.77;;
13457;SDS011;6801;53.018;11.560;2023-04-10T09:17:58;21.52;;;15.80;;
13457;SDS011;6801;53.018;11.560;2023-04-10T09:20:30;23.37;;;15.13;;
13457;SDS011;6801;53.018;11.560;2023-04-10T09:22:58;22.63;;;14.52;;
13457;SDS011;6801;53.018;11.560;2023-04-10T09:25:30;17.73;;;12.45;;
13457;SDS011;6801;53.018;11.560;2023-04-10T09:27:58;17.92;;;12.65;;
13457;SDS011;6801;53.018;11.560;2023-04-10T09:30:31;18.85;;;13.60;;
13457;SDS011;6801;53.018;11.560;2023-04-10T09:33:00;18.70;;;12.48;;
13457;SDS011;6801;53.018;11.560;2023-04-10T09:35:34;19.30;;;13.90;;
13457;SDS011;6801;53.018;11.560;2023-04-10T09:38:12;16.95;;;11.27;;
13457;SDS011;6801;53.018;11.560;2023-04-10T09:40:41;16.98;;;11.90;;
13457;SDS011;6801;53.018;11.560;2023-04-10T09:43:19;18.00;;;12.75;;
13457;SDS011;6801;53.018;11.560;2023-04-10T09:45:48;15.63;;;11.95;;
13457;SDS011;6801;53.018;11.560;2023-04-10T09:48:17;17.25;;;12.63;;
13457;SDS011;6801;53.018;11.560;2023-04-10T09:50:45;17.60;;;12.32;;
13457;SDS011;6801;53.018;11.560;2023-04-10T09:53:12;16.17;;;11.57;;
13457;SDS011;6801;53.018;11.560;2023-04-10T09:55:41;18.90;;;13.77;;
13457;SDS011;6801;53.018;11.560;2023-04-10T09:58:08;14.27;;;10.63;;
13457;SDS011;6801;53.018;11.560;2023-04-10T10:00:40;16.13;;;12.45;;
13457;SDS011;6801;53.018;11.560;2023-04-10T10:03:09;16.48;;;12.52;;
13457;SDS011;6801;53.018;11.560;2023-04-10T10:05:39;16.83;;;11.52;;
13457;SDS011;6801;53.018;11.560;2023-04-10T10:08:08;17.48;;;12.73;;
13457;SDS011;6801;53.018;11.560;2023-04-10T10:10:36;19.40;;;12.73;;
13457;SDS011;6801;53.018;11.560;2023-04-10T10:13:07;19.58;;;12.38;;
13457;SDS011;6801;53.018;11.560;2023-04-10T10:15:37;26.42;;;11.95;;
13457;SDS011;6801;53.018;11.560;2023-04-10T10:18:12;14.82;;;10.38;;
13457;SDS011;6801;53.018;11.560;2023-04-10T10:20:47;16.00;;;11.73;;
13457;SDS011;6801;53.018;11.560;2023-04-10T10:23:16;15.63;;;11.70;;
13457;SDS011;6801;53.018;11.560;2023-04-10T10:25:44;18.48;;;12.82;;
13457;SDS011;6801;53.018;11.560;2023-04-10T10:28:13;15.63;;;12.00;;
13457;SDS011;6801;53.018;11.560;2023-04-10T10:30:43;13.85;;;10.93;;
13457;SDS011;6801;53.018;11.560;2023-04-10T10:33:11;14.65;;;10.38;;
13457;SDS011;6801;53.018;11.560;2023-04-10T10:35:39;14.48;;;9.70;;
13457;SDS011;6801;53.018;11.560;2023-04-10T10:38:08;15.65;;;10.10;;
13457;SDS011;6801;53.018;11.560;2023-04-10T10:40:37;13.65;;;9.77;;
13457;SDS011;6801;53.018;11.560;2023-04-10T10:43:12;14.65;;;9.95;;
13457;SDS011;6801;53.018;11.560;2023-04-10T10:45:47;12.93;;;8.88;;
13457;SDS011;6801;53.018;11.560;2023-04-10T10:48:20;12.68;;;9.60;;
13457;SDS011;6801;53.018;11.560;2023-04-10T10:50:50;12.35;;;8.95;;
13457;SDS011;6801;53.018;11.560;2023-04-10T10:53:34;14.57;;;9.52;;
13457;SDS011;6801;53.018;11.560;2023-04-10T10:59:03;13.93;;;9.35;;
13457;SDS011;6801;53.018;11.560;2023-04-10T11:01:30;12.82;;;9.43;;
13457;SDS011;6801;53.018;11.560;2023-04-10T11:03:57;26.13;;;10.23;;
13457;SDS011;6801;53.018;11.560;2023-04-10T11:12:13;13.00;;;9.80;;
13457;SDS011;6801;53.018;11.560;2023-04-10T11:14:41;12.55;;;8.43;;
13457;SDS011;6801;53.018;11.560;2023-04-10T11:17:09;13.10;;;10.00;;
13457;SDS011;6801;53.018;11.560;2023-04-10T11:22:23;10.27;;;7.32;;
13457;SDS011;6801;53.018;11.560;2023-04-10T11:24:56;11.77;;;8.38;;
13457;SDS011;6801;53.018;11.560;2023-04-10T11:30:30;12.18;;;8.07;;
13457;SDS011;6801;53.018;11.560;2023-04-10T11:32:58;30.00;;;9.85;;
13457;SDS011;6801;53.018;11.560;2023-04-10T11:35:26;16.77;;;8.82;;
13457;SDS011;6801;53.018;11.560;2023-04-10T11:40:59;12.88;;;9.00;;
13457;SDS011;6801;53.018;11.560;2023-04-10T11:43:28;11.77;;;8.70;;
13457;SDS011;6801;53.018;11.560;2023-04-10T11:46:00;15.38;;;8.35;;
13457;SDS011;6801;53.018;11.560;2023-04-10T11:48:28;10.15;;;6.65;;
13457;SDS011;6801;53.018;11.560;2023-04-10T11:50:55;12.77;;;8.55;;
13457;SDS011;6801;53.018;11.560;2023-04-10T11:53:24;11.25;;;8.02;;
13457;SDS011;6801;53.018;11.560;2023-04-10T11:55:51;10.30;;;6.32;;
13457;SDS011;6801;53.018;11.560;2023-04-10T11:58:26;8.20;;;5.90;;
13457;SDS011;6801;53.018;11.560;2023-04-10T12:00:55;13.77;;;7.25;;
13457;SDS011;6801;53.018;11.560;2023-04-10T12:03:32;15.02;;;6.53;;
13457;SDS011;6801;53.018;11.560;2023-04-10T12:06:04;9.05;;;6.90;;
13457;SDS011;6801;53.018;11.560;2023-04-10T12:08:33;9.85;;;7.03;;
13457;SDS011;6801;53.018;11.560;2023-04-10T12:11:01;9.68;;;7.10;;
13457;SDS011;6801;53.018;11.560;2023-04-10T12:13:30;8.38;;;6.18;;
13457;SDS011;6801;53.018;11.560;2023-04-10T12:15:57;9.35;;;6.80;;
13457;SDS011;6801;53.018;11.560;2023-04-10T12:18:26;15.80;;;7.10;;
13457;SDS011;6801;53.018;11.560;2023-04-10T12:20:53;13.73;;;6.88;;
13457;SDS011;6801;53.018;11.560;2023-04-10T12:23:21;8.23;;;6.40;;
13457;SDS011;6801;53.018;11.560;2023-04-10T12:25:49;8.82;;;5.80;;
13457;SDS011;6801;53.018;11.560;2023-04-10T12:28:16;12.65;;;5.93;;
13457;SDS011;6801;53.018;11.560;2023-04-10T12:30:49;9.25;;;6.38;;
13457;SDS011;6801;53.018;11.560;2023-04-10T12:33:21;10.10;;;7.22;;
13457;SDS011;6801;53.018;11.560;2023-04-10T12:35:49;9.13;;;5.90;;
13457;SDS011;6801;53.018;11.560;2023-04-10T12:41:00;7.97;;;5.80;;
13457;SDS011;6801;53.018;11.560;2023-04-10T12:43:31;7.50;;;5.70;;
13457;SDS011;6801;53.018;11.560;2023-04-10T12:46:00;8.40;;;5.53;;
13457;SDS011;6801;53.018;11.560;2023-04-10T12:48:28;17.92;;;5.72;;
13457;SDS011;6801;53.018;11.560;2023-04-10T12:50:55;9.00;;;6.80;;
13457;SDS011;6801;53.018;11.560;2023-04-10T12:53:22;8.15;;;6.07;;
13457;SDS011;6801;53.018;11.560;2023-04-10T12:55:59;9.82;;;6.93;;
13457;SDS011;6801;53.018;11.560;2023-04-10T12:58:29;8.20;;;6.60;;
13457;SDS011;6801;53.018;11.560;2023-04-10T13:00:57;9.40;;;6.43;;
13457;SDS011;6801;53.018;11.560;2023-04-10T13:03:29;10.00;;;7.10;;
13457;SDS011;6801;53.018;11.560;2023-04-10T13:05:56;9.32;;;7.20;;
13457;SDS011;6801;53.018;11.560;2023-04-10T13:08:23;8.70;;;6.60;;
13457;SDS011;6801;53.018;11.560;2023-04-10T13:10:50;10.27;;;7.25;;
13457;SDS011;6801;53.018;11.560;2023-04-10T13:13:18;8.63;;;6.13;;
13457;SDS011;6801;53.018;11.560;2023-04-10T13:15:45;10.40;;;6.55;;
13457;SDS011;6801;53.018;11.560;2023-04-10T13:18:13;32.28;;;8.13;;
13457;SDS011;6801;53.018;11.560;2023-04-10T13:20:41;8.38;;;6.25;;
13457;SDS011;6801;53.018;11.560;2023-04-10T13:23:08;8.50;;;6.60;;
13457;SDS011;6801;53.018;11.560;2023-04-10T13:25:36;9.32;;;6.88;;
13457;SDS011;6801;53.018;11.560;2023-04-10T13:28:05;8.55;;;6.25;;
13457;SDS011;6801;53.018;11.560;2023-04-10T13:30:35;15.32;;;7.25;;
13457;SDS011;6801;53.018;11.560;2023-04-10T13:33:03;8.70;;;6.38;;
13457;SDS011;6801;53.018;11.560;2023-04-10T13:35:30;11.07;;;6.40;;
13457;SDS011;6801;53.018;11.560;2023-04-10T13:37:59;8.18;;;6.80;;
13457;SDS011;6801;53.018;11.560;2023-04-10T13:40:26;9.38;;;6.68;;
13457;SDS011;6801;53.018;11.560;2023-04-10T13:42:53;14.85;;;6.20;;
13457;SDS011;6801;53.018;11.560;2023-04-10T13:45:20;8.10;;;6.40;;
13457;SDS011;6801;53.018;11.560;2023-04-10T13:47:47;10.32;;;6.45;;
13457;SDS011;6801;53.018;11.560;2023-04-10T13:50:15;9.35;;;6.50;;
13457;SDS011;6801;53.018;11.560;2023-04-10T13:52:42;9.90;;;6.43;;
13457;SDS011;6801;53.018;11.560;2023-04-10T13:55:10;10.90;;;6.53;;
13457;SDS011;6801;53.018;11.560;2023-04-10T13:57:37;8.13;;;5.80;;
13457;SDS011;6801;53.018;11.560;2023-04-10T14:00:05;8.25;;;6.32;;
13457;SDS011;6801;53.018;11.560;2023-04-10T14:02:40;13.23;;;6.50;;
13457;SDS011;6801;53.018;11.560;2023-04-10T14:05:08;9.20;;;6.47;;
13457;SDS011;6801;53.018;11.560;2023-04-10T14:07:35;7.72;;;5.97;;
13457;SDS011;6801;53.018;11.560;2023-04-10T14:10:02;8.50;;;5.68;;
13457;SDS011;6801;53.018;11.560;2023-04-10T14:12:31;8.50;;;6.60;;
13457;SDS011;6801;53.018;11.560;2023-04-10T14:14:58;8.90;;;5.90;;
13457;SDS011;6801;53.018;11.560;2023-04-10T14:17:25;8.63;;;5.70;;
13457;SDS011;6801;53.018;11.560;2023-04-10T14:19:52;8.52;;;6.55;;
13457;SDS011;6801;53.018;11.560;2023-04-10T14:22:19;8.88;;;6.57;;
13457;SDS011;6801;53.018;11.560;2023-04-10T14:24:46;7.05;;;5.60;;
13457;SDS011;6801;53.018;11.560;2023-04-10T14:27:13;9.77;;;7.13;;
13457;SDS011;6801;53.018;11.560;2023-04-10T14:29:42;7.53;;;5.40;;
13457;SDS011;6801;53.018;11.560;2023-04-10T14:32:09;7.50;;;5.43;;
13457;SDS011;6801;53.018;11.560;2023-04-10T14:34:36;10.45;;;6.25;;
13457;SDS011;6801;53.018;11.560;2023-04-10T14:37:03;8.88;;;6.20;;
13457;SDS011;6801;53.018;11.560;2023-04-10T14:39:31;8.18;;;5.60;;
13457;SDS011;6801;53.018;11.560;2023-04-10T14:41:58;10.32;;;5.63;;
13457;SDS011;6801;53.018;11.560;2023-04-10T14:44:27;9.60;;;5.82;;
13457;SDS011;6801;53.018;11.560;2023-04-10T14:46:55;8.65;;;5.63;;
13457;SDS011;6801;53.018;11.560;2023-04-10T14:49:22;7.25;;;5.78;;
13457;SDS011;6801;53.018;11.560;2023-04-10T14:51:49;8.10;;;5.18;;
13457;SDS011;6801;53.018;11.560;2023-04-10T14:54:16;8.52;;;5.32;;
13457;SDS011;6801;53.018;11.560;2023-04-10T14:56:46;6.85;;;5.15;;
13457;SDS011;6801;53.018;11.560;2023-04-10T14:59:13;12.02;;;4.97;;
13457;SDS011;6801;53.018;11.560;2023-04-10T15:01:40;10.48;;;6.20;;
13457;SDS011;6801;53.018;11.560;2023-04-10T15:04:09;9.60;;;5.63;;
13457;SDS011;6801;53.018;11.560;2023-04-10T15:06:36;8.43;;;5.97;;
13457;SDS011;6801;53.018;11.560;2023-04-10T15:09:03;10.55;;;5.43;;
13457;SDS011;6801;53.018;11.560;2023-04-10T15:11:33;9.18;;;5.88;;
13457;SDS011;6801;53.018;11.560;2023-04-10T15:14:01;12.02;;;6.30;;